Key West International Airport
KEYW : rendu visible

Aérodrome :











RETROUVEZ-NOUS SUR...

 
LOGIN :

S'inscrire | Disclaimer

   EN    FR    IT 

 









Légende :    VFR   VFR Marginal   IFR   IFR Intensif   IFR Très Intensif
Visi : 
Plafond : 
>= 8 km
>= 3000ft
5 à 8 km
1000 à 3000 ft
1500m à 5 km
500 à 1000 ft
800 à 1500m
200 à 500 ft
< 800m
< 200 ft
Symboles :   Orages  Brouillard  Fortes neiges  Fortes précipitations  Vent > 20 kt






- Altitude de l'aérodrome : 3 ft
- Code IATA : EYW


KEYW - Key West International

DERNIER METAR :
  • 201153Z 02011KT 10SM CLR 22/09 A3008 RMK AO2 SLP187 T02170094 10228 20211 53014 $

METARs EXPIRÉS :
  • 201053Z AUTO 01012G19KT 10SM FEW002 22/13 A3006 RMK AO2 SLP178 T02170128 $
  • 201038Z AUTO 01009G17KT 10SM FEW002 22/13 A3005 RMK AO2 T02170128 $
  • 200953Z AUTO 01011G18KT 10SM CLR 22/13 A3005 RMK AO2 SLP174 T02170133 $
  • 200938Z AUTO 01012G19KT 10SM FEW002 22/13 A3005 RMK AO2 T02170128 $

TAF KEYW
Valide du 20 à 12h jusqu'au 21 à 12h UTC


201124Z 2012/2112 02012G19KT P6SM SKC
FM202300 03011KT P6SM SKC



MET'MAP, la Météo Aéronautique d'un coup d'oeil ! - Copyright ORBIFLY Décembre 2007 - Disclaimer

ORBIFLY MET'MAP TEAM :

Programmation & Développement : Alexandra Zaïnal
Conception & Développement : Baudouin d'Aumeries
Co-Programmation & Développement : Marc-Olivier Méhu
Soutien technique & logistique : Manuel Goepfert

Contact : metmap@orbifly.com




SOURCES & CREDITS :

   NOAA       Earth
Advisory